sensor_id;sensor_type;location;lat;lon;timestamp;temperature;humidity
43047;DHT22;28672;49.358;8.780;2022-08-11T00:00:56;16.80;99.90
43047;DHT22;28672;49.358;8.780;2022-08-11T00:03:22;16.80;99.90
43047;DHT22;28672;49.358;8.780;2022-08-11T00:05:50;16.80;99.90
43047;DHT22;28672;49.358;8.780;2022-08-11T00:08:24;16.80;99.90
43047;DHT22;28672;49.358;8.780;2022-08-11T00:11:02;16.80;99.90
43047;DHT22;28672;49.358;8.780;2022-08-11T00:13:33;16.70;99.90
43047;DHT22;28672;49.358;8.780;2022-08-11T00:16:01;16.70;99.90
43047;DHT22;28672;49.358;8.780;2022-08-11T00:18:27;16.70;99.90
43047;DHT22;28672;49.358;8.780;2022-08-11T00:20:57;16.70;99.90
43047;DHT22;28672;49.358;8.780;2022-08-11T00:23:24;16.60;99.90
43047;DHT22;28672;49.358;8.780;2022-08-11T00:25:50;16.50;99.90
43047;DHT22;28672;49.358;8.780;2022-08-11T00:30:50;16.60;99.90
43047;DHT22;28672;49.358;8.780;2022-08-11T00:33:16;16.60;99.90
43047;DHT22;28672;49.358;8.780;2022-08-11T00:35:43;16.50;99.90
43047;DHT22;28672;49.358;8.780;2022-08-11T00:38:10;16.50;99.90
43047;DHT22;28672;49.358;8.780;2022-08-11T00:40:43;16.50;99.90
43047;DHT22;28672;49.358;8.780;2022-08-11T00:43:20;16.40;99.90
43047;DHT22;28672;49.358;8.780;2022-08-11T00:46:13;16.40;99.90
43047;DHT22;28672;49.358;8.780;2022-08-11T00:49:10;16.30;99.90
43047;DHT22;28672;49.358;8.780;2022-08-11T00:55:13;16.30;99.90
43047;DHT22;28672;49.358;8.780;2022-08-11T01:09:58;16.10;99.90
43047;DHT22;28672;49.358;8.780;2022-08-11T01:16:01;16.00;99.90
43047;DHT22;28672;49.358;8.780;2022-08-11T01:18:54;16.00;99.90
43047;DHT22;28672;49.358;8.780;2022-08-11T01:36:06;15.80;99.90
43047;DHT22;28672;49.358;8.780;2022-08-11T01:44:19;15.70;99.90
43047;DHT22;28672;49.358;8.780;2022-08-11T01:50:13;15.70;99.90
43047;DHT22;28672;49.358;8.780;2022-08-11T02:03:49;15.50;99.90
43047;DHT22;28672;49.358;8.780;2022-08-11T02:12:08;15.50;99.90
43047;DHT22;28672;49.358;8.780;2022-08-11T02:18:03;15.50;99.90
43047;DHT22;28672;49.358;8.780;2022-08-11T02:20:50;15.50;99.90
43047;DHT22;28672;49.358;8.780;2022-08-11T02:23:54;15.50;99.90
43047;DHT22;28672;49.358;8.780;2022-08-11T02:26:25;15.50;99.90
43047;DHT22;28672;49.358;8.780;2022-08-11T02:29:20;15.50;99.90
43047;DHT22;28672;49.358;8.780;2022-08-11T02:32:13;15.50;99.90
43047;DHT22;28672;49.358;8.780;2022-08-11T02:35:21;15.50;99.90
43047;DHT22;28672;49.358;8.780;2022-08-11T02:40:41;15.40;99.90
43047;DHT22;28672;49.358;8.780;2022-08-11T02:43:16;15.50;99.90
43047;DHT22;28672;49.358;8.780;2022-08-11T02:48:37;15.40;99.90
43047;DHT22;28672;49.358;8.780;2022-08-11T02:51:44;15.40;99.90
43047;DHT22;28672;49.358;8.780;2022-08-11T02:54:41;15.40;99.90
43047;DHT22;28672;49.358;8.780;2022-08-11T02:57:28;15.40;99.90
43047;DHT22;28672;49.358;8.780;2022-08-11T03:00:09;15.40;99.90
43047;DHT22;28672;49.358;8.780;2022-08-11T03:03:06;15.40;99.90
43047;DHT22;28672;49.358;8.780;2022-08-11T03:11:15;15.30;99.90
43047;DHT22;28672;49.358;8.780;2022-08-11T03:14:20;15.30;99.90
43047;DHT22;28672;49.358;8.780;2022-08-11T03:20:14;15.20;99.90
43047;DHT22;28672;49.358;8.780;2022-08-11T03:23:03;15.20;99.90
43047;DHT22;28672;49.358;8.780;2022-08-11T03:25:58;15.20;99.90
43047;DHT22;28672;49.358;8.780;2022-08-11T03:28:31;15.10;99.90
43047;DHT22;28672;49.358;8.780;2022-08-11T03:31:09;15.10;99.90
43047;DHT22;28672;49.358;8.780;2022-08-11T03:33:47;15.10;99.90
43047;DHT22;28672;49.358;8.780;2022-08-11T03:37:04;15.00;99.90
43047;DHT22;28672;49.358;8.780;2022-08-11T03:42:56;14.90;99.90
43047;DHT22;28672;49.358;8.780;2022-08-11T03:45:29;14.80;99.90
43047;DHT22;28672;49.358;8.780;2022-08-11T03:48:09;14.80;99.90
43047;DHT22;28672;49.358;8.780;2022-08-11T04:02:36;14.80;99.90
43047;DHT22;28672;49.358;8.780;2022-08-11T04:08:19;14.70;99.90
43047;DHT22;28672;49.358;8.780;2022-08-11T04:11:06;14.70;99.90
43047;DHT22;28672;49.358;8.780;2022-08-11T04:16:51;14.70;99.90
43047;DHT22;28672;49.358;8.780;2022-08-11T04:20:01;14.70;99.90
43047;DHT22;28672;49.358;8.780;2022-08-11T04:40:47;14.80;99.90
43047;DHT22;28672;49.358;8.780;2022-08-11T04:43:44;14.80;99.90
43047;DHT22;28672;49.358;8.780;2022-08-11T04:49:37;14.80;99.90
43047;DHT22;28672;49.358;8.780;2022-08-11T04:56:01;15.00;99.90
43047;DHT22;28672;49.358;8.780;2022-08-11T05:08:01;15.40;99.90
43047;DHT22;28672;49.358;8.780;2022-08-11T05:14:00;16.40;99.90
43047;DHT22;28672;49.358;8.780;2022-08-11T05:16:53;17.00;99.90
43047;DHT22;28672;49.358;8.780;2022-08-11T05:19:45;17.50;99.90
43047;DHT22;28672;49.358;8.780;2022-08-11T05:22:30;17.90;99.90
43047;DHT22;28672;49.358;8.780;2022-08-11T05:25:24;18.40;99.90
43047;DHT22;28672;49.358;8.780;2022-08-11T05:28:12;18.80;99.90
43047;DHT22;28672;49.358;8.780;2022-08-11T05:31:11;18.80;99.90
43047;DHT22;28672;49.358;8.780;2022-08-11T05:34:00;19.00;99.90
43047;DHT22;28672;49.358;8.780;2022-08-11T05:36:49;19.30;99.90
43047;DHT22;28672;49.358;8.780;2022-08-11T05:39:17;19.90;99.90
43047;DHT22;28672;49.358;8.780;2022-08-11T05:42:05;20.00;99.90
43047;DHT22;28672;49.358;8.780;2022-08-11T05:44:56;20.00;99.90
43047;DHT22;28672;49.358;8.780;2022-08-11T05:47:42;19.90;99.90
43047;DHT22;28672;49.358;8.780;2022-08-11T05:50:31;20.10;99.90
43047;DHT22;28672;49.358;8.780;2022-08-11T05:53:15;20.50;99.90
43047;DHT22;28672;49.358;8.780;2022-08-11T05:56:04;20.90;99.90
43047;DHT22;28672;49.358;8.780;2022-08-11T05:58:49;21.10;99.90
43047;DHT22;28672;49.358;8.780;2022-08-11T06:01:42;21.40;99.90
43047;DHT22;28672;49.358;8.780;2022-08-11T06:04:15;21.10;99.90
43047;DHT22;28672;49.358;8.780;2022-08-11T06:07:01;21.40;99.90
43047;DHT22;28672;49.358;8.780;2022-08-11T06:09:32;22.00;99.90
43047;DHT22;28672;49.358;8.780;2022-08-11T06:11:59;21.70;99.90
43047;DHT22;28672;49.358;8.780;2022-08-11T06:14:26;22.30;99.90
43047;DHT22;28672;49.358;8.780;2022-08-11T06:16:55;22.30;99.90
43047;DHT22;28672;49.358;8.780;2022-08-11T06:19:31;22.80;99.90
43047;DHT22;28672;49.358;8.780;2022-08-11T06:21:57;22.60;99.90
43047;DHT22;28672;49.358;8.780;2022-08-11T06:24:24;23.00;99.90
43047;DHT22;28672;49.358;8.780;2022-08-11T06:26:53;22.80;99.90
43047;DHT22;28672;49.358;8.780;2022-08-11T06:29:20;22.90;99.90
43047;DHT22;28672;49.358;8.780;2022-08-11T06:32:04;23.00;99.90
43047;DHT22;28672;49.358;8.780;2022-08-11T06:34:37;23.60;99.90
43047;DHT22;28672;49.358;8.780;2022-08-11T06:37:38;23.80;99.90
43047;DHT22;28672;49.358;8.780;2022-08-11T06:40:24;24.00;99.90
43047;DHT22;28672;49.358;8.780;2022-08-11T06:45:56;24.40;99.90
43047;DHT22;28672;49.358;8.780;2022-08-11T06:48:30;24.00;99.90
43047;DHT22;28672;49.358;8.780;2022-08-11T06:51:01;24.10;99.90
43047;DHT22;28672;49.358;8.780;2022-08-11T06:53:42;24.30;99.90
43047;DHT22;28672;49.358;8.780;2022-08-11T06:56:09;24.30;99.90
43047;DHT22;28672;49.358;8.780;2022-08-11T06:58:56;24.50;99.90
43047;DHT22;28672;49.358;8.780;2022-08-11T07:02:10;24.40;99.90
43047;DHT22;28672;49.358;8.780;2022-08-11T07:04:42;24.50;99.90
43047;DHT22;28672;49.358;8.780;2022-08-11T07:13:51;24.60;99.90
43047;DHT22;28672;49.358;8.780;2022-08-11T07:16:40;24.50;99.90
43047;DHT22;28672;49.358;8.780;2022-08-11T07:19:06;24.90;99.90
43047;DHT22;28672;49.358;8.780;2022-08-11T07:21:52;25.10;99.90
43047;DHT22;28672;49.358;8.780;2022-08-11T07:24:45;25.10;99.90
43047;DHT22;28672;49.358;8.780;2022-08-11T07:27:40;25.20;99.90
43047;DHT22;28672;49.358;8.780;2022-08-11T07:30:25;25.40;99.90
43047;DHT22;28672;49.358;8.780;2022-08-11T07:32:53;25.30;99.90
43047;DHT22;28672;49.358;8.780;2022-08-11T07:35:23;25.20;99.90
43047;DHT22;28672;49.358;8.780;2022-08-11T07:37:59;25.30;99.90
43047;DHT22;28672;49.358;8.780;2022-08-11T07:40:26;25.50;99.90
43047;DHT22;28672;49.358;8.780;2022-08-11T07:42:54;25.60;99.90
43047;DHT22;28672;49.358;8.780;2022-08-11T07:45:22;25.70;99.10
43047;DHT22;28672;49.358;8.780;2022-08-11T07:48:06;26.00;98.50
43047;DHT22;28672;49.358;8.780;2022-08-11T07:50:51;26.00;97.80
43047;DHT22;28672;49.358;8.780;2022-08-11T07:53:36;25.80;97.40
43047;DHT22;28672;49.358;8.780;2022-08-11T07:56:03;25.70;97.50
43047;DHT22;28672;49.358;8.780;2022-08-11T07:58:31;25.80;97.60
43047;DHT22;28672;49.358;8.780;2022-08-11T08:01:20;26.10;98.30
43047;DHT22;28672;49.358;8.780;2022-08-11T08:04:07;25.80;96.80
43047;DHT22;28672;49.358;8.780;2022-08-11T08:06:52;25.70;96.80
43047;DHT22;28672;49.358;8.780;2022-08-11T08:09:37;25.50;97.00
43047;DHT22;28672;49.358;8.780;2022-08-11T08:12:23;25.60;97.00
43047;DHT22;28672;49.358;8.780;2022-08-11T08:15:10;25.80;96.60
43047;DHT22;28672;49.358;8.780;2022-08-11T08:18:00;26.10;96.30
43047;DHT22;28672;49.358;8.780;2022-08-11T08:20:34;25.90;96.20
43047;DHT22;28672;49.358;8.780;2022-08-11T08:23:01;26.30;96.30
43047;DHT22;28672;49.358;8.780;2022-08-11T08:25:33;26.40;95.60
43047;DHT22;28672;49.358;8.780;2022-08-11T08:28:02;26.10;95.60
43047;DHT22;28672;49.358;8.780;2022-08-11T08:30:29;26.30;95.80
43047;DHT22;28672;49.358;8.780;2022-08-11T08:33:21;26.50;95.90
43047;DHT22;28672;49.358;8.780;2022-08-11T08:35:52;26.50;95.60
43047;DHT22;28672;49.358;8.780;2022-08-11T08:38:37;26.90;95.20
43047;DHT22;28672;49.358;8.780;2022-08-11T08:41:03;26.90;94.00
43047;DHT22;28672;49.358;8.780;2022-08-11T08:43:30;26.90;94.40
43047;DHT22;28672;49.358;8.780;2022-08-11T08:45:57;27.20;94.40
43047;DHT22;28672;49.358;8.780;2022-08-11T08:48:24;27.10;93.70
43047;DHT22;28672;49.358;8.780;2022-08-11T08:50:59;27.30;93.50
43047;DHT22;28672;49.358;8.780;2022-08-11T08:53:49;27.10;93.70
43047;DHT22;28672;49.358;8.780;2022-08-11T08:56:16;26.90;94.20
43047;DHT22;28672;49.358;8.780;2022-08-11T08:58:45;27.10;93.80
43047;DHT22;28672;49.358;8.780;2022-08-11T09:01:12;27.40;94.30
43047;DHT22;28672;49.358;8.780;2022-08-11T09:03:39;27.50;92.50
43047;DHT22;28672;49.358;8.780;2022-08-11T09:06:05;27.50;92.50
43047;DHT22;28672;49.358;8.780;2022-08-11T09:08:32;27.50;92.70
43047;DHT22;28672;49.358;8.780;2022-08-11T09:11:00;27.50;92.30
43047;DHT22;28672;49.358;8.780;2022-08-11T09:13:45;27.80;92.50
43047;DHT22;28672;49.358;8.780;2022-08-11T09:16:12;27.60;91.90
43047;DHT22;28672;49.358;8.780;2022-08-11T09:18:39;27.70;91.90
43047;DHT22;28672;49.358;8.780;2022-08-11T09:21:06;28.00;91.40
43047;DHT22;28672;49.358;8.780;2022-08-11T09:23:32;28.10;90.70
43047;DHT22;28672;49.358;8.780;2022-08-11T09:26:17;28.20;90.40
43047;DHT22;28672;49.358;8.780;2022-08-11T09:29:02;28.10;90.40
43047;DHT22;28672;49.358;8.780;2022-08-11T09:31:30;28.20;90.00
43047;DHT22;28672;49.358;8.780;2022-08-11T09:33:58;28.30;90.00
43047;DHT22;28672;49.358;8.780;2022-08-11T09:36:25;28.00;88.20
43047;DHT22;28672;49.358;8.780;2022-08-11T09:39:10;28.10;86.80
43047;DHT22;28672;49.358;8.780;2022-08-11T09:41:55;28.10;87.30
43047;DHT22;28672;49.358;8.780;2022-08-11T09:44:21;28.20;86.20
43047;DHT22;28672;49.358;8.780;2022-08-11T09:47:06;28.30;84.80
43047;DHT22;28672;49.358;8.780;2022-08-11T09:49:42;28.20;85.40
43047;DHT22;28672;49.358;8.780;2022-08-11T09:52:09;28.30;84.50
43047;DHT22;28672;49.358;8.780;2022-08-11T09:54:40;28.60;84.50
43047;DHT22;28672;49.358;8.780;2022-08-11T09:57:06;28.50;83.70
43047;DHT22;28672;49.358;8.780;2022-08-11T09:59:51;28.50;84.10
43047;DHT22;28672;49.358;8.780;2022-08-11T10:02:25;28.40;84.00
43047;DHT22;28672;49.358;8.780;2022-08-11T10:04:55;28.60;83.50
43047;DHT22;28672;49.358;8.780;2022-08-11T10:07:43;28.70;83.10
43047;DHT22;28672;49.358;8.780;2022-08-11T10:10:16;28.50;80.60
43047;DHT22;28672;49.358;8.780;2022-08-11T10:13:00;28.50;79.40
43047;DHT22;28672;49.358;8.780;2022-08-11T10:15:29;28.50;80.80
43047;DHT22;28672;49.358;8.780;2022-08-11T10:18:08;28.60;80.20
43047;DHT22;28672;49.358;8.780;2022-08-11T10:21:01;28.80;79.40
43047;DHT22;28672;49.358;8.780;2022-08-11T10:23:31;28.90;79.40
43047;DHT22;28672;49.358;8.780;2022-08-11T10:26:17;29.00;80.20
43047;DHT22;28672;49.358;8.780;2022-08-11T10:29:02;29.20;80.30
43047;DHT22;28672;49.358;8.780;2022-08-11T10:31:49;29.30;77.80
43047;DHT22;28672;49.358;8.780;2022-08-11T10:34:34;29.20;78.60
43047;DHT22;28672;49.358;8.780;2022-08-11T10:37:00;29.10;79.00
43047;DHT22;28672;49.358;8.780;2022-08-11T10:39:29;28.90;79.40
43047;DHT22;28672;49.358;8.780;2022-08-11T10:41:55;28.90;79.70
43047;DHT22;28672;49.358;8.780;2022-08-11T10:44:42;29.00;79.10
43047;DHT22;28672;49.358;8.780;2022-08-11T10:47:12;29.00;78.80
43047;DHT22;28672;49.358;8.780;2022-08-11T10:49:57;29.10;78.40
43047;DHT22;28672;49.358;8.780;2022-08-11T10:52:43;29.20;77.60
43047;DHT22;28672;49.358;8.780;2022-08-11T10:55:31;29.20;78.00
43047;DHT22;28672;49.358;8.780;2022-08-11T10:58:15;29.50;78.30
43047;DHT22;28672;49.358;8.780;2022-08-11T11:01:00;29.50;76.70
43047;DHT22;28672;49.358;8.780;2022-08-11T11:03:29;29.50;75.60
43047;DHT22;28672;49.358;8.780;2022-08-11T11:06:02;29.80;76.40
43047;DHT22;28672;49.358;8.780;2022-08-11T11:08:30;29.80;74.80
43047;DHT22;28672;49.358;8.780;2022-08-11T11:11:17;29.50;73.80
43047;DHT22;28672;49.358;8.780;2022-08-11T11:13:48;29.70;74.10
43047;DHT22;28672;49.358;8.780;2022-08-11T11:16:35;29.90;73.30
43047;DHT22;28672;49.358;8.780;2022-08-11T11:19:21;29.80;71.80
43047;DHT22;28672;49.358;8.780;2022-08-11T11:21:53;29.80;72.70
43047;DHT22;28672;49.358;8.780;2022-08-11T11:24:40;29.90;70.30
43047;DHT22;28672;49.358;8.780;2022-08-11T11:27:31;29.80;71.10
43047;DHT22;28672;49.358;8.780;2022-08-11T11:30:07;30.00;70.30
43047;DHT22;28672;49.358;8.780;2022-08-11T11:37:42;30.50;70.10
43047;DHT22;28672;49.358;8.780;2022-08-11T11:40:17;30.50;68.60
43047;DHT22;28672;49.358;8.780;2022-08-11T11:42:48;30.80;68.70
43047;DHT22;28672;49.358;8.780;2022-08-11T11:45:18;30.80;68.40
43047;DHT22;28672;49.358;8.780;2022-08-11T11:47:46;30.70;67.90
43047;DHT22;28672;49.358;8.780;2022-08-11T11:50:27;30.80;68.30
43047;DHT22;28672;49.358;8.780;2022-08-11T11:52:53;30.60;69.30
43047;DHT22;28672;49.358;8.780;2022-08-11T11:55:21;30.40;68.90
43047;DHT22;28672;49.358;8.780;2022-08-11T11:57:47;30.40;68.20
43047;DHT22;28672;49.358;8.780;2022-08-11T12:00:33;30.50;69.40
43047;DHT22;28672;49.358;8.780;2022-08-11T12:03:19;30.60;67.30
43047;DHT22;28672;49.358;8.780;2022-08-11T12:05:45;30.50;67.20
43047;DHT22;28672;49.358;8.780;2022-08-11T12:08:11;30.40;68.30
43047;DHT22;28672;49.358;8.780;2022-08-11T12:10:47;30.70;69.90
43047;DHT22;28672;49.358;8.780;2022-08-11T12:13:15;30.70;68.10
43047;DHT22;28672;49.358;8.780;2022-08-11T12:16:00;30.90;68.10
43047;DHT22;28672;49.358;8.780;2022-08-11T12:18:30;30.70;67.10
43047;DHT22;28672;49.358;8.780;2022-08-11T12:20:58;30.50;66.70
43047;DHT22;28672;49.358;8.780;2022-08-11T12:23:24;30.60;67.70
43047;DHT22;28672;49.358;8.780;2022-08-11T12:26:09;30.80;67.30
43047;DHT22;28672;49.358;8.780;2022-08-11T12:28:53;30.80;67.20
43047;DHT22;28672;49.358;8.780;2022-08-11T12:31:22;30.80;66.40
43047;DHT22;28672;49.358;8.780;2022-08-11T12:33:50;30.70;66.10
43047;DHT22;28672;49.358;8.780;2022-08-11T12:36:16;30.70;65.50
43047;DHT22;28672;49.358;8.780;2022-08-11T12:38:46;30.60;66.00
43047;DHT22;28672;49.358;8.780;2022-08-11T12:41:13;30.60;65.50
43047;DHT22;28672;49.358;8.780;2022-08-11T12:43:58;30.60;66.50
43047;DHT22;28672;49.358;8.780;2022-08-11T12:46:45;30.50;66.30
43047;DHT22;28672;49.358;8.780;2022-08-11T12:49:18;30.70;66.20
43047;DHT22;28672;49.358;8.780;2022-08-11T12:52:08;30.70;66.20
43047;DHT22;28672;49.358;8.780;2022-08-11T12:57:40;31.00;66.00
43047;DHT22;28672;49.358;8.780;2022-08-11T13:00:27;30.90;64.40
43047;DHT22;28672;49.358;8.780;2022-08-11T13:03:13;31.00;65.30
43047;DHT22;28672;49.358;8.780;2022-08-11T13:05:59;30.90;63.10
43047;DHT22;28672;49.358;8.780;2022-08-11T13:08:27;30.90;63.40
43047;DHT22;28672;49.358;8.780;2022-08-11T13:10:55;31.00;64.20
43047;DHT22;28672;49.358;8.780;2022-08-11T13:13:40;31.20;64.70
43047;DHT22;28672;49.358;8.780;2022-08-11T13:16:08;31.40;64.80
43047;DHT22;28672;49.358;8.780;2022-08-11T13:18:35;31.40;64.40
43047;DHT22;28672;49.358;8.780;2022-08-11T13:21:02;31.40;63.00
43047;DHT22;28672;49.358;8.780;2022-08-11T13:23:27;31.40;62.90
43047;DHT22;28672;49.358;8.780;2022-08-11T13:25:54;31.20;63.80
43047;DHT22;28672;49.358;8.780;2022-08-11T13:28:21;31.20;64.70
43047;DHT22;28672;49.358;8.780;2022-08-11T13:30:50;31.00;63.50
43047;DHT22;28672;49.358;8.780;2022-08-11T13:33:41;31.30;65.10
43047;DHT22;28672;49.358;8.780;2022-08-11T13:36:08;31.20;63.90
43047;DHT22;28672;49.358;8.780;2022-08-11T13:38:35;31.00;64.00
43047;DHT22;28672;49.358;8.780;2022-08-11T13:41:02;31.00;64.40
43047;DHT22;28672;49.358;8.780;2022-08-11T13:43:48;31.00;64.40
43047;DHT22;28672;49.358;8.780;2022-08-11T13:46:15;31.20;63.70
43047;DHT22;28672;49.358;8.780;2022-08-11T13:48:45;31.30;64.50
43047;DHT22;28672;49.358;8.780;2022-08-11T13:51:12;31.10;63.00
43047;DHT22;28672;49.358;8.780;2022-08-11T13:53:59;31.00;64.20
43047;DHT22;28672;49.358;8.780;2022-08-11T13:56:26;31.00;64.10
43047;DHT22;28672;49.358;8.780;2022-08-11T13:58:54;31.30;63.90
43047;DHT22;28672;49.358;8.780;2022-08-11T14:01:21;31.20;62.50
43047;DHT22;28672;49.358;8.780;2022-08-11T14:03:49;31.30;62.60
43047;DHT22;28672;49.358;8.780;2022-08-11T14:06:17;31.20;62.20
43047;DHT22;28672;49.358;8.780;2022-08-11T14:08:44;31.30;62.80
43047;DHT22;28672;49.358;8.780;2022-08-11T14:11:10;31.40;62.50
43047;DHT22;28672;49.358;8.780;2022-08-11T14:13:56;31.30;61.60
43047;DHT22;28672;49.358;8.780;2022-08-11T14:16:28;31.10;61.00
43047;DHT22;28672;49.358;8.780;2022-08-11T14:19:00;31.10;61.50
43047;DHT22;28672;49.358;8.780;2022-08-11T14:21:27;31.20;61.90
43047;DHT22;28672;49.358;8.780;2022-08-11T14:24:15;31.10;61.70
43047;DHT22;28672;49.358;8.780;2022-08-11T14:26:41;31.20;61.90
43047;DHT22;28672;49.358;8.780;2022-08-11T14:29:16;31.00;61.70
43047;DHT22;28672;49.358;8.780;2022-08-11T14:31:55;31.10;62.60
43047;DHT22;28672;49.358;8.780;2022-08-11T14:34:24;31.30;62.40
43047;DHT22;28672;49.358;8.780;2022-08-11T14:36:56;31.10;62.20
43047;DHT22;28672;49.358;8.780;2022-08-11T14:39:27;31.30;62.00
43047;DHT22;28672;49.358;8.780;2022-08-11T14:41:55;31.30;61.00
43047;DHT22;28672;49.358;8.780;2022-08-11T14:44:44;31.30;60.60
43047;DHT22;28672;49.358;8.780;2022-08-11T14:47:32;31.10;59.70
43047;DHT22;28672;49.358;8.780;2022-08-11T14:49:58;31.20;60.70
43047;DHT22;28672;49.358;8.780;2022-08-11T14:52:27;30.80;60.80
43047;DHT22;28672;49.358;8.780;2022-08-11T14:54:57;30.80;61.10
43047;DHT22;28672;49.358;8.780;2022-08-11T14:57:49;31.00;60.40
43047;DHT22;28672;49.358;8.780;2022-08-11T15:00:16;30.90;60.90
43047;DHT22;28672;49.358;8.780;2022-08-11T15:02:44;31.00;61.70
43047;DHT22;28672;49.358;8.780;2022-08-11T15:05:29;30.90;61.90
43047;DHT22;28672;49.358;8.780;2022-08-11T15:07:56;31.00;62.80
43047;DHT22;28672;49.358;8.780;2022-08-11T15:10:23;30.90;61.10
43047;DHT22;28672;49.358;8.780;2022-08-11T15:12:50;30.80;60.70
43047;DHT22;28672;49.358;8.780;2022-08-11T15:15:17;30.80;60.80
43047;DHT22;28672;49.358;8.780;2022-08-11T15:18:04;30.90;60.90
43047;DHT22;28672;49.358;8.780;2022-08-11T15:20:32;30.90;61.30
43047;DHT22;28672;49.358;8.780;2022-08-11T15:23:17;31.00;60.90
43047;DHT22;28672;49.358;8.780;2022-08-11T15:26:14;31.00;59.80
43047;DHT22;28672;49.358;8.780;2022-08-11T15:31:55;30.90;59.30
43047;DHT22;28672;49.358;8.780;2022-08-11T15:34:42;30.70;59.60
43047;DHT22;28672;49.358;8.780;2022-08-11T15:37:29;30.80;60.10
43047;DHT22;28672;49.358;8.780;2022-08-11T15:45:49;30.80;59.40
43047;DHT22;28672;49.358;8.780;2022-08-11T15:48:55;30.90;60.00
43047;DHT22;28672;49.358;8.780;2022-08-11T15:51:32;30.80;60.40
43047;DHT22;28672;49.358;8.780;2022-08-11T15:54:04;30.90;60.40
43047;DHT22;28672;49.358;8.780;2022-08-11T15:56:35;30.80;59.80
43047;DHT22;28672;49.358;8.780;2022-08-11T15:59:02;30.70;59.60
43047;DHT22;28672;49.358;8.780;2022-08-11T16:01:52;30.70;59.90
43047;DHT22;28672;49.358;8.780;2022-08-11T16:04:37;30.50;60.00
43047;DHT22;28672;49.358;8.780;2022-08-11T16:07:09;30.50;61.80
43047;DHT22;28672;49.358;8.780;2022-08-11T16:10:02;30.50;61.00
43047;DHT22;28672;49.358;8.780;2022-08-11T16:12:35;30.50;60.30
43047;DHT22;28672;49.358;8.780;2022-08-11T16:15:03;30.60;59.70
43047;DHT22;28672;49.358;8.780;2022-08-11T16:17:58;30.80;59.80
43047;DHT22;28672;49.358;8.780;2022-08-11T16:20:26;30.90;60.40
43047;DHT22;28672;49.358;8.780;2022-08-11T16:22:56;31.20;60.20
43047;DHT22;28672;49.358;8.780;2022-08-11T16:25:24;31.50;59.30
43047;DHT22;28672;49.358;8.780;2022-08-11T16:27:52;31.70;59.00
43047;DHT22;28672;49.358;8.780;2022-08-11T16:30:18;31.60;58.70
43047;DHT22;28672;49.358;8.780;2022-08-11T16:32:48;31.60;59.00
43047;DHT22;28672;49.358;8.780;2022-08-11T16:35:19;31.60;58.80
43047;DHT22;28672;49.358;8.780;2022-08-11T16:38:05;31.50;58.90
43047;DHT22;28672;49.358;8.780;2022-08-11T16:40:51;31.30;58.90
43047;DHT22;28672;49.358;8.780;2022-08-11T16:43:19;31.10;59.30
43047;DHT22;28672;49.358;8.780;2022-08-11T16:46:04;30.90;59.80
43047;DHT22;28672;49.358;8.780;2022-08-11T16:48:50;30.80;59.40
43047;DHT22;28672;49.358;8.780;2022-08-11T16:51:20;30.60;59.80
43047;DHT22;28672;49.358;8.780;2022-08-11T16:53:47;30.40;60.40
43047;DHT22;28672;49.358;8.780;2022-08-11T16:56:22;30.30;59.70
43047;DHT22;28672;49.358;8.780;2022-08-11T16:58:56;30.10;59.10
43047;DHT22;28672;49.358;8.780;2022-08-11T17:02:22;30.00;59.60
43047;DHT22;28672;49.358;8.780;2022-08-11T17:05:11;30.00;60.30
43047;DHT22;28672;49.358;8.780;2022-08-11T17:07:59;29.80;60.70
43047;DHT22;28672;49.358;8.780;2022-08-11T17:10:49;29.70;61.00
43047;DHT22;28672;49.358;8.780;2022-08-11T17:14:10;29.60;60.50
43047;DHT22;28672;49.358;8.780;2022-08-11T17:16:34;29.60;60.90
43047;DHT22;28672;49.358;8.780;2022-08-11T17:19:16;29.50;61.90
43047;DHT22;28672;49.358;8.780;2022-08-11T17:21:46;29.50;61.80
43047;DHT22;28672;49.358;8.780;2022-08-11T17:24:34;29.40;62.20
43047;DHT22;28672;49.358;8.780;2022-08-11T17:27:01;29.30;62.30
43047;DHT22;28672;49.358;8.780;2022-08-11T17:29:39;29.20;62.30
43047;DHT22;28672;49.358;8.780;2022-08-11T17:32:24;29.20;62.60
43047;DHT22;28672;49.358;8.780;2022-08-11T17:35:13;29.20;62.80
43047;DHT22;28672;49.358;8.780;2022-08-11T17:38:02;29.10;63.70
43047;DHT22;28672;49.358;8.780;2022-08-11T17:40:29;29.00;63.50
43047;DHT22;28672;49.358;8.780;2022-08-11T17:42:57;28.90;63.30
43047;DHT22;28672;49.358;8.780;2022-08-11T17:45:43;28.90;63.80
43047;DHT22;28672;49.358;8.780;2022-08-11T17:48:30;28.70;63.90
43047;DHT22;28672;49.358;8.780;2022-08-11T17:51:07;28.70;64.00
43047;DHT22;28672;49.358;8.780;2022-08-11T17:53:39;28.60;65.80
43047;DHT22;28672;49.358;8.780;2022-08-11T17:56:25;28.50;66.70
43047;DHT22;28672;49.358;8.780;2022-08-11T17:59:11;28.30;68.60
43047;DHT22;28672;49.358;8.780;2022-08-11T18:01:59;28.10;70.20
43047;DHT22;28672;49.358;8.780;2022-08-11T18:04:58;27.90;70.10
43047;DHT22;28672;49.358;8.780;2022-08-11T18:07:25;27.70;69.80
43047;DHT22;28672;49.358;8.780;2022-08-11T18:10:10;27.50;70.30
43047;DHT22;28672;49.358;8.780;2022-08-11T18:12:56;27.30;70.70
43047;DHT22;28672;49.358;8.780;2022-08-11T18:15:43;27.10;71.70
43047;DHT22;28672;49.358;8.780;2022-08-11T18:18:27;27.00;72.20
43047;DHT22;28672;49.358;8.780;2022-08-11T18:21:14;26.80;75.20
43047;DHT22;28672;49.358;8.780;2022-08-11T18:24:03;26.60;75.30
43047;DHT22;28672;49.358;8.780;2022-08-11T18:26:53;26.50;78.70
43047;DHT22;28672;49.358;8.780;2022-08-11T18:29:39;26.30;78.80
43047;DHT22;28672;49.358;8.780;2022-08-11T18:32:28;26.10;79.30
43047;DHT22;28672;49.358;8.780;2022-08-11T18:35:15;25.90;82.00
43047;DHT22;28672;49.358;8.780;2022-08-11T18:38:02;25.80;80.90
43047;DHT22;28672;49.358;8.780;2022-08-11T18:40:49;25.60;83.40
43047;DHT22;28672;49.358;8.780;2022-08-11T18:43:36;25.40;80.50
43047;DHT22;28672;49.358;8.780;2022-08-11T18:46:22;25.40;80.30
43047;DHT22;28672;49.358;8.780;2022-08-11T18:49:13;25.30;80.70
43047;DHT22;28672;49.358;8.780;2022-08-11T18:52:02;25.20;80.60
43047;DHT22;28672;49.358;8.780;2022-08-11T18:54:48;25.10;80.90
43047;DHT22;28672;49.358;8.780;2022-08-11T18:57:37;24.90;81.30
43047;DHT22;28672;49.358;8.780;2022-08-11T19:00:24;24.80;81.30
43047;DHT22;28672;49.358;8.780;2022-08-11T19:03:11;24.60;81.80
43047;DHT22;28672;49.358;8.780;2022-08-11T19:06:00;24.50;81.70
43047;DHT22;28672;49.358;8.780;2022-08-11T19:08:50;24.40;82.10
43047;DHT22;28672;49.358;8.780;2022-08-11T19:11:36;24.20;82.30
43047;DHT22;28672;49.358;8.780;2022-08-11T19:14:22;24.10;82.90
43047;DHT22;28672;49.358;8.780;2022-08-11T19:17:07;23.90;83.50
43047;DHT22;28672;49.358;8.780;2022-08-11T19:19:54;23.80;84.10
43047;DHT22;28672;49.358;8.780;2022-08-11T19:22:38;23.70;84.60
43047;DHT22;28672;49.358;8.780;2022-08-11T19:25:23;23.70;85.40